KLOR/LOR METAR and TAF weather

Enter ICAO airport designator
Station Type Date Time Source
KLOR METAR 2020/10/20 17:58 UTC NOAA

KLOR 201758Z AUTO 08007KT 10SM SCT041 SCT060 29/18 A3010 RMK AO2 SLP174 T02860182 10288 20179 58013


Station Type Date Time Source
KLOR Decoded METAR 2020/10/20 17:58 UTC NOAA

Fort Rucker, Lowe Army Heliport, AL, United States (KLOR) 31-21-32N 085-44-54W 93M
Oct 20, 2020 - 01:58 PM EDT / 2020.10.20 1758 UTC
Wind: from the E (080 degrees) at 8 MPH (7 KT):0
Visibility: 10 mile(s):0
Sky conditions: partly cloudy
Temperature: 83.5 F (28.6 C)
Dew Point: 64.8 F (18.2 C)
Relative Humidity: 53%
Pressure (altimeter): 30.1 in. Hg (1019 hPa)
Pressure tendency: 0.04 inches (1.3 hPa) lower than three hours ago
ob: KLOR 201758Z AUTO 08007KT 10SM SCT041 SCT060 29/18 A3010 RMK AO2 SLP174 T02860182 10288 20179 58013
cycle: 18

Station Type Date Time Source
KLOR TAF UTC NOAA

Error!

Example: see airport list